sensor_id;sensor_type;location;lat;lon;timestamp;pressure;altitude;pressure_sealevel;temperature;humidity
49949;BME280;35840;45.982;8.890;2022-11-20T00:01:20;97636.59;;;5.09;63.99
49949;BME280;35840;45.982;8.890;2022-11-20T00:03:48;97644.22;;;5.09;63.31
49949;BME280;35840;45.982;8.890;2022-11-20T00:06:17;97645.75;;;4.95;62.72
49949;BME280;35840;45.982;8.890;2022-11-20T00:08:44;97657.19;;;5.04;63.39
49949;BME280;35840;45.982;8.890;2022-11-20T00:11:20;97651.13;;;5.07;65.60
49949;BME280;35840;45.982;8.890;2022-11-20T00:13:48;97655.94;;;4.95;66.20
49949;BME280;35840;45.982;8.890;2022-11-20T00:16:17;97654.28;;;4.94;66.87
49949;BME280;35840;45.982;8.890;2022-11-20T00:18:45;97652.63;;;4.76;66.31
49949;BME280;35840;45.982;8.890;2022-11-20T00:21:20;97657.38;;;4.83;65.84
49949;BME280;35840;45.982;8.890;2022-11-20T00:23:48;97666.44;;;4.89;65.78
49949;BME280;35840;45.982;8.890;2022-11-20T00:26:17;97664.69;;;4.72;66.68
49949;BME280;35840;45.982;8.890;2022-11-20T00:28:49;97663.72;;;4.92;65.73
49949;BME280;35840;45.982;8.890;2022-11-20T00:31:17;97668.91;;;4.91;65.47
49949;BME280;35840;45.982;8.890;2022-11-20T00:33:44;97667.16;;;4.91;66.31
49949;BME280;35840;45.982;8.890;2022-11-20T00:36:16;97674.50;;;4.97;66.31
49949;BME280;35840;45.982;8.890;2022-11-20T00:38:44;97670.97;;;5.00;66.41
49949;BME280;35840;45.982;8.890;2022-11-20T00:41:13;97679.31;;;5.04;65.55
49949;BME280;35840;45.982;8.890;2022-11-20T00:43:41;97679.91;;;4.91;65.69
49949;BME280;35840;45.982;8.890;2022-11-20T00:46:12;97665.50;;;4.73;66.36
49949;BME280;35840;45.982;8.890;2022-11-20T00:48:40;97677.59;;;4.87;67.27
49949;BME280;35840;45.982;8.890;2022-11-20T00:51:07;97683.94;;;4.95;65.43
49949;BME280;35840;45.982;8.890;2022-11-20T00:53:34;97673.59;;;4.98;65.08
49949;BME280;35840;45.982;8.890;2022-11-20T00:56:04;97673.53;;;5.00;64.19
49949;BME280;35840;45.982;8.890;2022-11-20T00:58:35;97682.59;;;5.06;62.50
49949;BME280;35840;45.982;8.890;2022-11-20T01:01:11;97672.25;;;5.09;61.82
49949;BME280;35840;45.982;8.890;2022-11-20T01:03:42;97680.06;;;5.23;62.75
49949;BME280;35840;45.982;8.890;2022-11-20T01:06:21;97673.91;;;5.27;62.71
49949;BME280;35840;45.982;8.890;2022-11-20T01:08:50;97676.50;;;5.26;61.09
49949;BME280;35840;45.982;8.890;2022-11-20T01:11:19;97670.69;;;5.06;61.17
49949;BME280;35840;45.982;8.890;2022-11-20T01:13:48;97679.47;;;5.00;61.98
49949;BME280;35840;45.982;8.890;2022-11-20T01:16:29;97686.25;;;5.00;62.59
49949;BME280;35840;45.982;8.890;2022-11-20T01:18:59;97684.69;;;4.97;63.63
49949;BME280;35840;45.982;8.890;2022-11-20T01:21:33;97691.28;;;5.02;63.65
49949;BME280;35840;45.982;8.890;2022-11-20T01:24:00;97695.75;;;4.79;63.71
49949;BME280;35840;45.982;8.890;2022-11-20T01:26:30;97694.88;;;4.80;64.70
49949;BME280;35840;45.982;8.890;2022-11-20T01:28:57;97689.13;;;4.76;64.07
49949;BME280;35840;45.982;8.890;2022-11-20T01:31:35;97705.06;;;4.80;63.07
49949;BME280;35840;45.982;8.890;2022-11-20T01:34:07;97696.75;;;4.76;63.78
49949;BME280;35840;45.982;8.890;2022-11-20T01:36:36;97702.59;;;4.96;64.04
49949;BME280;35840;45.982;8.890;2022-11-20T01:39:10;97698.28;;;4.98;63.85
49949;BME280;35840;45.982;8.890;2022-11-20T01:41:38;97698.63;;;4.90;64.74
49949;BME280;35840;45.982;8.890;2022-11-20T01:47:42;97697.41;;;4.97;65.43
49949;BME280;35840;45.982;8.890;2022-11-20T01:50:24;97700.28;;;4.91;64.93
49949;BME280;35840;45.982;8.890;2022-11-20T01:52:59;97703.63;;;4.92;64.76
49949;BME280;35840;45.982;8.890;2022-11-20T01:55:31;97697.81;;;4.90;65.33
49949;BME280;35840;45.982;8.890;2022-11-20T01:58:00;97704.03;;;4.84;65.87
49949;BME280;35840;45.982;8.890;2022-11-20T02:00:27;97706.63;;;4.82;66.27
49949;BME280;35840;45.982;8.890;2022-11-20T02:02:59;97701.31;;;4.70;66.82
49949;BME280;35840;45.982;8.890;2022-11-20T02:05:36;97699.56;;;4.70;66.82
49949;BME280;35840;45.982;8.890;2022-11-20T02:08:06;97705.13;;;4.78;66.55
49949;BME280;35840;45.982;8.890;2022-11-20T02:10:34;97699.34;;;4.75;66.87
49949;BME280;35840;45.982;8.890;2022-11-20T02:13:01;97705.28;;;4.75;66.43
49949;BME280;35840;45.982;8.890;2022-11-20T02:15:48;97708.88;;;4.71;66.43
49949;BME280;35840;45.982;8.890;2022-11-20T02:18:17;97704.44;;;4.75;65.78
49949;BME280;35840;45.982;8.890;2022-11-20T02:20:47;97697.09;;;4.69;65.55
49949;BME280;35840;45.982;8.890;2022-11-20T02:25:59;97708.41;;;4.80;65.92
49949;BME280;35840;45.982;8.890;2022-11-20T02:28:28;97707.59;;;4.80;65.87
49949;BME280;35840;45.982;8.890;2022-11-20T02:30:55;97700.34;;;4.72;63.33
49949;BME280;35840;45.982;8.890;2022-11-20T02:33:21;97714.84;;;4.70;64.23
49949;BME280;35840;45.982;8.890;2022-11-20T02:35:48;97716.66;;;4.68;64.90
49949;BME280;35840;45.982;8.890;2022-11-20T02:38:15;97713.00;;;4.74;65.24
49949;BME280;35840;45.982;8.890;2022-11-20T02:40:42;97704.19;;;4.62;66.34
49949;BME280;35840;45.982;8.890;2022-11-20T02:43:09;97706.16;;;4.57;65.54
49949;BME280;35840;45.982;8.890;2022-11-20T02:45:36;97711.16;;;4.58;65.56
49949;BME280;35840;45.982;8.890;2022-11-20T02:48:03;97713.25;;;4.50;64.75
49949;BME280;35840;45.982;8.890;2022-11-20T02:50:30;97719.63;;;4.59;65.03
49949;BME280;35840;45.982;8.890;2022-11-20T02:52:57;97724.63;;;4.60;65.31
49949;BME280;35840;45.982;8.890;2022-11-20T02:55:23;97714.97;;;4.50;65.73
49949;BME280;35840;45.982;8.890;2022-11-20T02:57:50;97719.78;;;4.56;65.25
49949;BME280;35840;45.982;8.890;2022-11-20T03:00:17;97715.41;;;4.58;63.88
49949;BME280;35840;45.982;8.890;2022-11-20T03:02:44;97722.16;;;4.59;64.26
49949;BME280;35840;45.982;8.890;2022-11-20T03:05:10;97721.75;;;4.68;64.65
49949;BME280;35840;45.982;8.890;2022-11-20T03:07:37;97720.66;;;4.55;64.07
49949;BME280;35840;45.982;8.890;2022-11-20T03:10:04;97711.91;;;4.60;64.56
49949;BME280;35840;45.982;8.890;2022-11-20T03:12:31;97719.28;;;4.67;64.63
49949;BME280;35840;45.982;8.890;2022-11-20T03:14:58;97711.56;;;4.68;64.52
49949;BME280;35840;45.982;8.890;2022-11-20T03:17:25;97714.25;;;4.65;63.72
49949;BME280;35840;45.982;8.890;2022-11-20T03:19:51;97713.34;;;4.66;64.53
49949;BME280;35840;45.982;8.890;2022-11-20T03:22:18;97715.88;;;4.66;64.45
49949;BME280;35840;45.982;8.890;2022-11-20T03:24:45;97715.88;;;4.66;64.23
49949;BME280;35840;45.982;8.890;2022-11-20T03:27:11;97727.69;;;4.50;65.34
49949;BME280;35840;45.982;8.890;2022-11-20T03:29:38;97718.03;;;4.56;65.02
49949;BME280;35840;45.982;8.890;2022-11-20T03:32:05;97715.16;;;4.45;64.76
49949;BME280;35840;45.982;8.890;2022-11-20T03:34:31;97723.81;;;4.41;65.13
49949;BME280;35840;45.982;8.890;2022-11-20T03:36:58;97714.91;;;4.51;64.78
49949;BME280;35840;45.982;8.890;2022-11-20T03:39:25;97720.25;;;4.45;64.58
49949;BME280;35840;45.982;8.890;2022-11-20T03:41:52;97720.41;;;4.42;65.22
49949;BME280;35840;45.982;8.890;2022-11-20T03:44:21;97713.38;;;4.28;65.75
49949;BME280;35840;45.982;8.890;2022-11-20T03:46:47;97720.00;;;4.32;66.25
49949;BME280;35840;45.982;8.890;2022-11-20T03:49:14;97711.66;;;4.09;65.17
49949;BME280;35840;45.982;8.890;2022-11-20T03:51:41;97720.50;;;4.21;65.19
49949;BME280;35840;45.982;8.890;2022-11-20T03:54:07;97721.25;;;4.23;64.49
49949;BME280;35840;45.982;8.890;2022-11-20T03:56:36;97727.22;;;4.22;64.87
49949;BME280;35840;45.982;8.890;2022-11-20T03:59:04;97727.56;;;4.34;64.79
49949;BME280;35840;45.982;8.890;2022-11-20T04:01:35;97720.56;;;4.20;64.90
49949;BME280;35840;45.982;8.890;2022-11-20T04:04:04;97737.94;;;4.29;64.99
49949;BME280;35840;45.982;8.890;2022-11-20T04:06:36;97733.22;;;4.21;64.79
49949;BME280;35840;45.982;8.890;2022-11-20T04:09:04;97740.22;;;4.16;65.72
49949;BME280;35840;45.982;8.890;2022-11-20T04:11:33;97729.00;;;4.20;65.58
49949;BME280;35840;45.982;8.890;2022-11-20T04:14:03;97731.88;;;4.12;66.15
49949;BME280;35840;45.982;8.890;2022-11-20T04:16:35;97735.47;;;4.08;66.43
49949;BME280;35840;45.982;8.890;2022-11-20T04:19:05;97731.22;;;4.09;66.78
49949;BME280;35840;45.982;8.890;2022-11-20T04:21:32;97735.94;;;4.17;65.65
49949;BME280;35840;45.982;8.890;2022-11-20T04:23:58;97735.13;;;4.16;65.27
49949;BME280;35840;45.982;8.890;2022-11-20T04:26:27;97737.66;;;4.16;65.24
49949;BME280;35840;45.982;8.890;2022-11-20T04:28:54;97732.31;;;4.03;65.35
49949;BME280;35840;45.982;8.890;2022-11-20T04:31:24;97730.84;;;3.97;66.12
49949;BME280;35840;45.982;8.890;2022-11-20T04:33:51;97742.94;;;3.92;66.47
49949;BME280;35840;45.982;8.890;2022-11-20T04:36:21;97742.28;;;4.08;66.40
49949;BME280;35840;45.982;8.890;2022-11-20T04:39:02;97740.88;;;4.01;65.63
49949;BME280;35840;45.982;8.890;2022-11-20T04:41:32;97741.25;;;3.93;66.59
49949;BME280;35840;45.982;8.890;2022-11-20T04:44:00;97738.00;;;3.89;65.21
49949;BME280;35840;45.982;8.890;2022-11-20T04:46:34;97736.66;;;3.81;66.12
49949;BME280;35840;45.982;8.890;2022-11-20T04:49:01;97737.78;;;3.94;66.34
49949;BME280;35840;45.982;8.890;2022-11-20T04:51:28;97740.16;;;3.99;66.50
49949;BME280;35840;45.982;8.890;2022-11-20T04:53:56;97747.22;;;4.11;66.17
49949;BME280;35840;45.982;8.890;2022-11-20T04:56:22;97740.69;;;4.05;66.33
49949;BME280;35840;45.982;8.890;2022-11-20T04:58:49;97737.16;;;3.89;65.86
49949;BME280;35840;45.982;8.890;2022-11-20T05:01:19;97743.16;;;3.88;65.98
49949;BME280;35840;45.982;8.890;2022-11-20T05:03:46;97751.56;;;3.69;66.76
49949;BME280;35840;45.982;8.890;2022-11-20T05:06:15;97757.47;;;3.70;67.06
49949;BME280;35840;45.982;8.890;2022-11-20T05:08:42;97747.19;;;3.73;66.95
49949;BME280;35840;45.982;8.890;2022-11-20T05:11:10;97758.75;;;3.80;65.70
49949;BME280;35840;45.982;8.890;2022-11-20T05:13:38;97773.84;;;3.83;67.05
49949;BME280;35840;45.982;8.890;2022-11-20T05:16:11;97770.44;;;3.84;68.02
49949;BME280;35840;45.982;8.890;2022-11-20T05:18:39;97775.03;;;3.95;67.00
49949;BME280;35840;45.982;8.890;2022-11-20T05:21:07;97772.78;;;3.89;66.55
49949;BME280;35840;45.982;8.890;2022-11-20T05:23:34;97774.00;;;3.80;67.52
49949;BME280;35840;45.982;8.890;2022-11-20T05:26:02;97778.47;;;3.94;66.16
49949;BME280;35840;45.982;8.890;2022-11-20T05:28:30;97781.84;;;3.94;66.13
49949;BME280;35840;45.982;8.890;2022-11-20T05:31:15;97781.22;;;3.89;66.75
49949;BME280;35840;45.982;8.890;2022-11-20T05:33:47;97782.59;;;3.96;67.03
49949;BME280;35840;45.982;8.890;2022-11-20T05:36:14;97787.38;;;3.84;67.49
49949;BME280;35840;45.982;8.890;2022-11-20T05:38:41;97788.66;;;3.73;67.92
49949;BME280;35840;45.982;8.890;2022-11-20T05:41:14;97792.69;;;3.79;67.32
49949;BME280;35840;45.982;8.890;2022-11-20T05:43:42;97795.88;;;3.84;67.94
49949;BME280;35840;45.982;8.890;2022-11-20T05:46:11;97801.41;;;3.92;67.26
49949;BME280;35840;45.982;8.890;2022-11-20T05:48:39;97803.84;;;3.95;67.56
49949;BME280;35840;45.982;8.890;2022-11-20T05:51:08;97805.97;;;3.86;67.01
49949;BME280;35840;45.982;8.890;2022-11-20T05:53:36;97799.53;;;3.77;67.65
49949;BME280;35840;45.982;8.890;2022-11-20T05:56:06;97797.50;;;3.85;67.90
49949;BME280;35840;45.982;8.890;2022-11-20T05:58:33;97805.59;;;3.74;68.24
49949;BME280;35840;45.982;8.890;2022-11-20T06:03:39;97811.06;;;3.86;68.33
49949;BME280;35840;45.982;8.890;2022-11-20T06:06:06;97801.91;;;3.82;67.44
49949;BME280;35840;45.982;8.890;2022-11-20T06:08:33;97810.06;;;3.88;66.73
49949;BME280;35840;45.982;8.890;2022-11-20T06:11:08;97827.25;;;3.83;68.18
49949;BME280;35840;45.982;8.890;2022-11-20T06:13:35;97825.66;;;3.81;67.89
49949;BME280;35840;45.982;8.890;2022-11-20T06:16:07;97824.56;;;3.66;67.90
49949;BME280;35840;45.982;8.890;2022-11-20T06:18:34;97818.66;;;3.65;67.36
49949;BME280;35840;45.982;8.890;2022-11-20T06:21:03;97829.78;;;3.62;68.49
49949;BME280;35840;45.982;8.890;2022-11-20T06:23:31;97830.50;;;3.66;67.19
49949;BME280;35840;45.982;8.890;2022-11-20T06:26:07;97831.50;;;3.62;67.71
49949;BME280;35840;45.982;8.890;2022-11-20T06:28:34;97836.59;;;3.62;67.03
49949;BME280;35840;45.982;8.890;2022-11-20T06:31:02;97842.81;;;3.55;67.92
49949;BME280;35840;45.982;8.890;2022-11-20T06:33:29;97836.00;;;3.55;68.45
49949;BME280;35840;45.982;8.890;2022-11-20T06:35:57;97847.25;;;3.50;68.43
49949;BME280;35840;45.982;8.890;2022-11-20T06:38:29;97848.78;;;3.32;68.95
49949;BME280;35840;45.982;8.890;2022-11-20T06:40:56;97850.09;;;3.42;69.23
49949;BME280;35840;45.982;8.890;2022-11-20T06:43:23;97851.91;;;3.38;68.69
49949;BME280;35840;45.982;8.890;2022-11-20T06:45:53;97862.09;;;3.38;69.51
49949;BME280;35840;45.982;8.890;2022-11-20T06:48:21;97862.88;;;3.40;69.48
49949;BME280;35840;45.982;8.890;2022-11-20T06:50:47;97864.03;;;3.54;68.33
49949;BME280;35840;45.982;8.890;2022-11-20T06:53:14;97867.34;;;3.56;69.33
49949;BME280;35840;45.982;8.890;2022-11-20T06:55:45;97836.75;;;3.37;69.04
49949;BME280;35840;45.982;8.890;2022-11-20T06:58:13;97867.63;;;3.48;69.34
49949;BME280;35840;45.982;8.890;2022-11-20T07:00:40;97865.50;;;3.37;69.57
49949;BME280;35840;45.982;8.890;2022-11-20T07:03:09;97875.13;;;3.51;69.61
49949;BME280;35840;45.982;8.890;2022-11-20T07:05:36;97872.47;;;3.54;68.73
49949;BME280;35840;45.982;8.890;2022-11-20T07:08:04;97875.13;;;3.51;69.79
49949;BME280;35840;45.982;8.890;2022-11-20T07:10:31;97887.16;;;3.48;69.82
49949;BME280;35840;45.982;8.890;2022-11-20T07:12:58;97878.59;;;3.50;69.38
49949;BME280;35840;45.982;8.890;2022-11-20T07:15:25;97888.38;;;3.37;69.61
49949;BME280;35840;45.982;8.890;2022-11-20T07:17:52;97892.91;;;3.51;69.50
49949;BME280;35840;45.982;8.890;2022-11-20T07:20:19;97889.09;;;3.41;70.31
49949;BME280;35840;45.982;8.890;2022-11-20T07:22:46;97896.53;;;3.45;70.61
49949;BME280;35840;45.982;8.890;2022-11-20T07:25:12;97904.94;;;3.48;71.08
49949;BME280;35840;45.982;8.890;2022-11-20T07:27:39;97906.34;;;3.55;70.39
49949;BME280;35840;45.982;8.890;2022-11-20T07:30:06;97904.22;;;3.44;70.38
49949;BME280;35840;45.982;8.890;2022-11-20T07:32:33;97912.63;;;3.46;70.14
49949;BME280;35840;45.982;8.890;2022-11-20T07:34:59;97908.94;;;3.53;70.07
49949;BME280;35840;45.982;8.890;2022-11-20T07:37:26;97916.72;;;3.49;70.32
49949;BME280;35840;45.982;8.890;2022-11-20T07:39:53;97927.03;;;3.45;70.55
49949;BME280;35840;45.982;8.890;2022-11-20T07:42:19;97917.59;;;3.49;71.15
49949;BME280;35840;45.982;8.890;2022-11-20T07:44:49;97919.00;;;3.56;70.57
49949;BME280;35840;45.982;8.890;2022-11-20T07:47:15;97919.94;;;3.54;70.24
49949;BME280;35840;45.982;8.890;2022-11-20T07:49:42;97921.13;;;3.45;70.74
49949;BME280;35840;45.982;8.890;2022-11-20T07:52:09;97917.91;;;3.62;70.67
49949;BME280;35840;45.982;8.890;2022-11-20T07:54:35;97914.09;;;3.52;71.18
49949;BME280;35840;45.982;8.890;2022-11-20T07:57:02;97916.72;;;3.71;71.11
49949;BME280;35840;45.982;8.890;2022-11-20T07:59:29;97921.81;;;3.71;71.97
49949;BME280;35840;45.982;8.890;2022-11-20T08:01:55;97923.81;;;3.85;71.55
49949;BME280;35840;45.982;8.890;2022-11-20T08:04:22;97926.69;;;3.97;72.62
49949;BME280;35840;45.982;8.890;2022-11-20T08:06:52;97928.16;;;4.03;72.85
49949;BME280;35840;45.982;8.890;2022-11-20T08:09:18;97932.22;;;4.07;73.82
49949;BME280;35840;45.982;8.890;2022-11-20T08:11:46;97934.28;;;4.20;74.17
49949;BME280;35840;45.982;8.890;2022-11-20T08:14:31;97929.59;;;4.29;75.25
49949;BME280;35840;45.982;8.890;2022-11-20T08:16:57;97932.78;;;4.35;76.12
49949;BME280;35840;45.982;8.890;2022-11-20T08:19:25;97935.19;;;4.38;75.62
49949;BME280;35840;45.982;8.890;2022-11-20T08:21:52;97941.06;;;4.40;75.22
49949;BME280;35840;45.982;8.890;2022-11-20T08:24:19;97939.78;;;4.50;74.62
49949;BME280;35840;45.982;8.890;2022-11-20T08:26:45;97945.63;;;4.52;74.42
49949;BME280;35840;45.982;8.890;2022-11-20T08:29:12;97936.97;;;4.56;74.49
49949;BME280;35840;45.982;8.890;2022-11-20T08:31:39;97944.84;;;4.71;73.00
49949;BME280;35840;45.982;8.890;2022-11-20T08:34:06;97944.84;;;4.71;71.58
49949;BME280;35840;45.982;8.890;2022-11-20T08:36:35;97942.03;;;4.77;71.45
49949;BME280;35840;45.982;8.890;2022-11-20T08:39:03;97946.59;;;4.89;70.52
49949;BME280;35840;45.982;8.890;2022-11-20T08:41:30;97943.91;;;4.92;69.05
49949;BME280;35840;45.982;8.890;2022-11-20T08:44:04;97946.09;;;5.00;69.10
49949;BME280;35840;45.982;8.890;2022-11-20T08:46:41;97938.19;;;5.06;69.05
49949;BME280;35840;45.982;8.890;2022-11-20T08:49:11;97939.56;;;5.13;69.18
49949;BME280;35840;45.982;8.890;2022-11-20T08:51:39;97945.41;;;5.15;68.36
49949;BME280;35840;45.982;8.890;2022-11-20T08:54:06;97945.91;;;5.24;68.05
49949;BME280;35840;45.982;8.890;2022-11-20T08:56:33;97942.03;;;5.34;68.87
49949;BME280;35840;45.982;8.890;2022-11-20T08:59:00;97953.81;;;5.37;69.01
49949;BME280;35840;45.982;8.890;2022-11-20T09:01:47;97939.97;;;5.42;68.72
49949;BME280;35840;45.982;8.890;2022-11-20T09:04:14;97937.25;;;5.45;67.38
49949;BME280;35840;45.982;8.890;2022-11-20T09:06:41;97934.00;;;5.61;68.40
49949;BME280;35840;45.982;8.890;2022-11-20T09:09:07;97939.03;;;5.62;68.47
49949;BME280;35840;45.982;8.890;2022-11-20T09:11:34;97932.56;;;5.73;66.98
49949;BME280;35840;45.982;8.890;2022-11-20T09:14:02;97930.56;;;5.79;67.44
49949;BME280;35840;45.982;8.890;2022-11-20T09:16:30;97925.69;;;5.92;64.78
49949;BME280;35840;45.982;8.890;2022-11-20T09:18:57;97938.94;;;6.00;65.07
49949;BME280;35840;45.982;8.890;2022-11-20T09:21:44;97936.19;;;6.23;63.54
49949;BME280;35840;45.982;8.890;2022-11-20T09:24:11;97923.91;;;6.29;64.00
49949;BME280;35840;45.982;8.890;2022-11-20T09:26:37;97939.38;;;6.44;61.55
49949;BME280;35840;45.982;8.890;2022-11-20T09:29:04;97924.00;;;6.45;61.64
49949;BME280;35840;45.982;8.890;2022-11-20T09:31:31;97930.94;;;6.59;62.12
49949;BME280;35840;45.982;8.890;2022-11-20T09:33:58;97915.75;;;6.74;58.42
49949;BME280;35840;45.982;8.890;2022-11-20T09:36:24;97913.00;;;6.77;58.07
49949;BME280;35840;45.982;8.890;2022-11-20T09:38:51;97933.22;;;6.81;59.41
49949;BME280;35840;45.982;8.890;2022-11-20T09:52:45;97911.63;;;7.03;60.15
49949;BME280;35840;45.982;8.890;2022-11-20T09:55:16;97917.31;;;7.24;58.98
49949;BME280;35840;45.982;8.890;2022-11-20T09:57:46;97909.25;;;7.32;57.41
49949;BME280;35840;45.982;8.890;2022-11-20T10:00:15;97912.78;;;7.29;58.11
49949;BME280;35840;45.982;8.890;2022-11-20T10:03:21;97908.50;;;7.46;54.03
49949;BME280;35840;45.982;8.890;2022-11-20T10:05:53;97907.16;;;7.54;55.53
49949;BME280;35840;45.982;8.890;2022-11-20T10:08:54;97898.19;;;7.78;55.85
49949;BME280;35840;45.982;8.890;2022-11-20T10:16:38;97885.47;;;8.06;52.38
49949;BME280;35840;45.982;8.890;2022-11-20T10:22:01;97877.88;;;8.05;54.50
49949;BME280;35840;45.982;8.890;2022-11-20T10:24:56;97875.13;;;8.08;56.08
49949;BME280;35840;45.982;8.890;2022-11-20T10:30:29;97877.44;;;8.13;56.84
49949;BME280;35840;45.982;8.890;2022-11-20T10:33:19;97873.34;;;8.39;52.98
49949;BME280;35840;45.982;8.890;2022-11-20T10:38:47;97874.81;;;8.57;51.13
49949;BME280;35840;45.982;8.890;2022-11-20T10:41:26;97872.34;;;8.85;48.91
49949;BME280;35840;45.982;8.890;2022-11-20T10:44:17;97872.56;;;9.09;47.00
49949;BME280;35840;45.982;8.890;2022-11-20T10:47:12;97873.94;;;9.15;48.76
49949;BME280;35840;45.982;8.890;2022-11-20T10:49:41;97877.97;;;9.04;50.08
49949;BME280;35840;45.982;8.890;2022-11-20T10:58:10;97862.38;;;9.22;48.79
49949;BME280;35840;45.982;8.890;2022-11-20T11:00:38;97860.34;;;9.40;48.54
49949;BME280;35840;45.982;8.890;2022-11-20T11:03:35;97853.53;;;9.53;46.58
49949;BME280;35840;45.982;8.890;2022-11-20T11:08:34;97859.41;;;9.68;43.80
49949;BME280;35840;45.982;8.890;2022-11-20T11:11:28;97849.41;;;9.51;46.53
49949;BME280;35840;45.982;8.890;2022-11-20T11:14:13;97844.69;;;9.44;46.46
49949;BME280;35840;45.982;8.890;2022-11-20T11:16:49;97853.09;;;9.46;45.39
49949;BME280;35840;45.982;8.890;2022-11-20T11:19:17;97850.09;;;9.80;42.76
49949;BME280;35840;45.982;8.890;2022-11-20T11:21:49;97835.72;;;9.90;42.72
49949;BME280;35840;45.982;8.890;2022-11-20T11:24:26;97826.69;;;9.85;43.82
49949;BME280;35840;45.982;8.890;2022-11-20T11:27:13;97835.00;;;9.75;44.68
49949;BME280;35840;45.982;8.890;2022-11-20T11:29:44;97825.88;;;9.84;45.12
49949;BME280;35840;45.982;8.890;2022-11-20T11:34:39;97827.13;;;10.04;43.63
49949;BME280;35840;45.982;8.890;2022-11-20T11:37:16;97812.72;;;10.14;43.55
49949;BME280;35840;45.982;8.890;2022-11-20T11:39:45;97806.34;;;10.20;44.47
49949;BME280;35840;45.982;8.890;2022-11-20T11:42:29;97807.19;;;10.21;42.64
49949;BME280;35840;45.982;8.890;2022-11-20T11:45:00;97818.69;;;10.28;44.12
49949;BME280;35840;45.982;8.890;2022-11-20T11:47:43;97810.38;;;10.37;40.58
49949;BME280;35840;45.982;8.890;2022-11-20T11:53:11;97808.72;;;10.36;39.16
49949;BME280;35840;45.982;8.890;2022-11-20T11:56:04;97801.81;;;10.49;40.17
49949;BME280;35840;45.982;8.890;2022-11-20T12:03:59;97783.19;;;10.59;35.62
49949;BME280;35840;45.982;8.890;2022-11-20T12:06:30;97779.69;;;10.60;39.76
49949;BME280;35840;45.982;8.890;2022-11-20T12:09:08;97784.25;;;10.80;39.75
49949;BME280;35840;45.982;8.890;2022-11-20T12:11:46;97775.81;;;10.78;40.85
49949;BME280;35840;45.982;8.890;2022-11-20T12:14:38;97767.69;;;10.84;38.80
49949;BME280;35840;45.982;8.890;2022-11-20T12:17:10;97752.72;;;10.90;36.94
49949;BME280;35840;45.982;8.890;2022-11-20T12:19:38;97759.03;;;10.85;37.38
49949;BME280;35840;45.982;8.890;2022-11-20T12:25:02;97761.38;;;10.89;36.01
49949;BME280;35840;45.982;8.890;2022-11-20T12:43:23;97755.38;;;11.36;38.83
49949;BME280;35840;45.982;8.890;2022-11-20T12:46:23;97765.09;;;11.33;37.35
49949;BME280;35840;45.982;8.890;2022-11-20T12:58:05;97741.75;;;11.59;33.35
49949;BME280;35840;45.982;8.890;2022-11-20T13:00:41;97746.41;;;11.53;34.90
49949;BME280;35840;45.982;8.890;2022-11-20T13:08:35;97746.41;;;11.53;33.52
49949;BME280;35840;45.982;8.890;2022-11-20T13:16:22;97742.28;;;11.51;38.29
49949;BME280;35840;45.982;8.890;2022-11-20T13:18:51;97728.50;;;11.63;38.74
49949;BME280;35840;45.982;8.890;2022-11-20T13:21:22;97726.66;;;11.65;38.24
49949;BME280;35840;45.982;8.890;2022-11-20T13:23:49;97727.47;;;11.77;37.15
49949;BME280;35840;45.982;8.890;2022-11-20T13:26:22;97717.66;;;11.71;36.47
49949;BME280;35840;45.982;8.890;2022-11-20T13:29:21;97723.97;;;11.78;36.18
49949;BME280;35840;45.982;8.890;2022-11-20T13:31:48;97725.38;;;11.82;34.57
49949;BME280;35840;45.982;8.890;2022-11-20T13:34:26;97716.69;;;11.83;36.62
49949;BME280;35840;45.982;8.890;2022-11-20T13:36:56;97717.06;;;11.90;34.06
49949;BME280;35840;45.982;8.890;2022-11-20T13:39:32;97711.25;;;12.11;33.81
49949;BME280;35840;45.982;8.890;2022-11-20T13:42:02;97706.53;;;12.04;34.22
49949;BME280;35840;45.982;8.890;2022-11-20T13:44:42;97701.41;;;12.04;35.05
49949;BME280;35840;45.982;8.890;2022-11-20T13:47:27;97696.00;;;12.08;35.45
49949;BME280;35840;45.982;8.890;2022-11-20T13:49:57;97688.63;;;12.03;34.67
49949;BME280;35840;45.982;8.890;2022-11-20T14:00:58;97682.88;;;11.88;31.23
49949;BME280;35840;45.982;8.890;2022-11-20T14:03:30;97679.94;;;11.93;31.42
49949;BME280;35840;45.982;8.890;2022-11-20T14:08:54;97686.78;;;11.94;31.20
49949;BME280;35840;45.982;8.890;2022-11-20T14:11:26;97677.28;;;11.94;31.67
49949;BME280;35840;45.982;8.890;2022-11-20T14:16:34;97681.03;;;12.01;32.42
49949;BME280;35840;45.982;8.890;2022-11-20T14:21:48;97690.72;;;12.09;37.27
49949;BME280;35840;45.982;8.890;2022-11-20T14:24:23;97701.50;;;12.14;37.00
49949;BME280;35840;45.982;8.890;2022-11-20T14:26:51;97698.25;;;12.12;39.34
49949;BME280;35840;45.982;8.890;2022-11-20T14:29:22;97702.69;;;12.10;38.47
49949;BME280;35840;45.982;8.890;2022-11-20T14:31:54;97696.34;;;11.92;39.38
49949;BME280;35840;45.982;8.890;2022-11-20T14:34:25;97694.69;;;11.79;35.44
49949;BME280;35840;45.982;8.890;2022-11-20T14:36:57;97684.28;;;11.69;36.24
49949;BME280;35840;45.982;8.890;2022-11-20T14:39:33;97679.22;;;11.68;36.52
49949;BME280;35840;45.982;8.890;2022-11-20T14:42:00;97678.78;;;11.63;36.19
49949;BME280;35840;45.982;8.890;2022-11-20T14:44:34;97680.88;;;11.69;36.54
49949;BME280;35840;45.982;8.890;2022-11-20T14:47:04;97674.56;;;11.62;36.64
49949;BME280;35840;45.982;8.890;2022-11-20T14:49:31;97673.88;;;11.60;36.94
49949;BME280;35840;45.982;8.890;2022-11-20T14:52:10;97682.28;;;11.50;35.88
49949;BME280;35840;45.982;8.890;2022-11-20T14:54:47;97678.28;;;11.46;39.45
49949;BME280;35840;45.982;8.890;2022-11-20T14:57:28;97688.81;;;11.32;38.94
49949;BME280;35840;45.982;8.890;2022-11-20T15:02:46;97694.31;;;10.92;39.65
49949;BME280;35840;45.982;8.890;2022-11-20T15:05:13;97695.66;;;10.73;40.95
49949;BME280;35840;45.982;8.890;2022-11-20T15:07:44;97699.72;;;10.51;42.09
49949;BME280;35840;45.982;8.890;2022-11-20T15:10:20;97708.91;;;10.30;42.97
49949;BME280;35840;45.982;8.890;2022-11-20T15:15:44;97712.50;;;9.90;44.52
49949;BME280;35840;45.982;8.890;2022-11-20T15:18:13;97707.47;;;9.76;45.95
49949;BME280;35840;45.982;8.890;2022-11-20T15:20:42;97711.69;;;9.64;47.12
49949;BME280;35840;45.982;8.890;2022-11-20T15:23:11;97707.06;;;9.43;45.27